sensor_id;sensor_type;location;lat;lon;timestamp;P1;durP1;ratioP1;P2;durP2;ratioP2
23812;SDS011;12087;45.190;5.688;2023-04-01T00:03:12;4.72;;;1.70;;
23812;SDS011;12087;45.190;5.688;2023-04-01T00:08:34;4.18;;;1.73;;
23812;SDS011;12087;45.190;5.688;2023-04-01T00:13:58;5.88;;;1.50;;
23812;SDS011;12087;45.190;5.688;2023-04-01T00:19:20;4.07;;;2.13;;
23812;SDS011;12087;45.190;5.688;2023-04-01T00:24:42;5.45;;;1.70;;
23812;SDS011;12087;45.190;5.688;2023-04-01T00:30:06;2.50;;;1.50;;
23812;SDS011;12087;45.190;5.688;2023-04-01T00:35:30;5.72;;;1.90;;
23812;SDS011;12087;45.190;5.688;2023-04-01T00:40:56;9.02;;;2.58;;
23812;SDS011;12087;45.190;5.688;2023-04-01T00:46:21;4.93;;;2.35;;
23812;SDS011;12087;45.190;5.688;2023-04-01T00:51:43;3.75;;;1.70;;
23812;SDS011;12087;45.190;5.688;2023-04-01T00:57:09;4.00;;;1.60;;
23812;SDS011;12087;45.190;5.688;2023-04-01T01:02:38;4.47;;;1.60;;
23812;SDS011;12087;45.190;5.688;2023-04-01T01:08:04;8.07;;;1.98;;
23812;SDS011;12087;45.190;5.688;2023-04-01T01:13:36;4.88;;;1.70;;
23812;SDS011;12087;45.190;5.688;2023-04-01T01:19:07;4.00;;;2.08;;
23812;SDS011;12087;45.190;5.688;2023-04-01T01:24:49;4.68;;;1.50;;
23812;SDS011;12087;45.190;5.688;2023-04-01T01:30:24;5.13;;;1.60;;
23812;SDS011;12087;45.190;5.688;2023-04-01T01:35:58;3.60;;;1.75;;
23812;SDS011;12087;45.190;5.688;2023-04-01T01:41:25;5.30;;;1.90;;
23812;SDS011;12087;45.190;5.688;2023-04-01T01:46:48;5.55;;;1.70;;
23812;SDS011;12087;45.190;5.688;2023-04-01T01:52:13;5.88;;;1.50;;
23812;SDS011;12087;45.190;5.688;2023-04-01T01:57:36;6.70;;;1.77;;
23812;SDS011;12087;45.190;5.688;2023-04-01T02:03:00;4.13;;;1.48;;
23812;SDS011;12087;45.190;5.688;2023-04-01T02:08:24;6.05;;;1.90;;
23812;SDS011;12087;45.190;5.688;2023-04-01T02:13:51;7.38;;;1.55;;
23812;SDS011;12087;45.190;5.688;2023-04-01T02:19:16;5.15;;;1.35;;
23812;SDS011;12087;45.190;5.688;2023-04-01T02:24:44;5.55;;;1.75;;
23812;SDS011;12087;45.190;5.688;2023-04-01T02:30:07;10.23;;;1.50;;
23812;SDS011;12087;45.190;5.688;2023-04-01T02:35:30;5.75;;;1.35;;
23812;SDS011;12087;45.190;5.688;2023-04-01T02:40:58;3.28;;;1.30;;
23812;SDS011;12087;45.190;5.688;2023-04-01T02:46:22;8.05;;;1.30;;
23812;SDS011;12087;45.190;5.688;2023-04-01T02:51:44;6.10;;;1.23;;
23812;SDS011;12087;45.190;5.688;2023-04-01T02:57:07;7.10;;;1.63;;
23812;SDS011;12087;45.190;5.688;2023-04-01T03:02:30;3.65;;;1.50;;
23812;SDS011;12087;45.190;5.688;2023-04-01T03:07:52;4.85;;;1.45;;
23812;SDS011;12087;45.190;5.688;2023-04-01T03:13:16;5.82;;;1.40;;
23812;SDS011;12087;45.190;5.688;2023-04-01T03:18:38;2.90;;;1.35;;
23812;SDS011;12087;45.190;5.688;2023-04-01T03:24:00;5.72;;;1.73;;
23812;SDS011;12087;45.190;5.688;2023-04-01T03:29:24;7.80;;;1.30;;
23812;SDS011;12087;45.190;5.688;2023-04-01T03:34:46;7.93;;;2.55;;
23812;SDS011;12087;45.190;5.688;2023-04-01T03:40:09;7.32;;;2.15;;
23812;SDS011;12087;45.190;5.688;2023-04-01T03:45:33;4.85;;;1.52;;
23812;SDS011;12087;45.190;5.688;2023-04-01T03:50:55;7.53;;;1.77;;
23812;SDS011;12087;45.190;5.688;2023-04-01T03:56:18;3.78;;;1.95;;
23812;SDS011;12087;45.190;5.688;2023-04-01T04:01:41;4.82;;;1.73;;
23812;SDS011;12087;45.190;5.688;2023-04-01T04:07:03;4.18;;;1.83;;
23812;SDS011;12087;45.190;5.688;2023-04-01T04:12:26;3.72;;;1.88;;
23812;SDS011;12087;45.190;5.688;2023-04-01T04:17:49;5.90;;;2.17;;
23812;SDS011;12087;45.190;5.688;2023-04-01T04:23:12;5.78;;;2.15;;
23812;SDS011;12087;45.190;5.688;2023-04-01T04:28:34;6.50;;;2.20;;
23812;SDS011;12087;45.190;5.688;2023-04-01T04:33:58;7.45;;;2.40;;
23812;SDS011;12087;45.190;5.688;2023-04-01T04:39:21;5.45;;;2.50;;
23812;SDS011;12087;45.190;5.688;2023-04-01T04:44:43;9.75;;;3.50;;
23812;SDS011;12087;45.190;5.688;2023-04-01T04:50:08;5.47;;;1.73;;
23812;SDS011;12087;45.190;5.688;2023-04-01T04:55:31;3.95;;;1.90;;
23812;SDS011;12087;45.190;5.688;2023-04-01T05:00:54;4.35;;;2.10;;
23812;SDS011;12087;45.190;5.688;2023-04-01T05:06:17;6.05;;;2.25;;
23812;SDS011;12087;45.190;5.688;2023-04-01T05:11:40;4.78;;;1.98;;
23812;SDS011;12087;45.190;5.688;2023-04-01T05:17:03;5.13;;;2.40;;
23812;SDS011;12087;45.190;5.688;2023-04-01T05:22:26;4.03;;;2.20;;
23812;SDS011;12087;45.190;5.688;2023-04-01T05:27:48;7.88;;;2.17;;
23812;SDS011;12087;45.190;5.688;2023-04-01T05:33:11;7.68;;;2.53;;
23812;SDS011;12087;45.190;5.688;2023-04-01T05:38:35;5.75;;;2.20;;
23812;SDS011;12087;45.190;5.688;2023-04-01T05:43:57;6.63;;;2.20;;
23812;SDS011;12087;45.190;5.688;2023-04-01T05:49:20;7.65;;;2.58;;
23812;SDS011;12087;45.190;5.688;2023-04-01T05:54:43;8.27;;;2.28;;
23812;SDS011;12087;45.190;5.688;2023-04-01T06:00:06;6.68;;;2.70;;
23812;SDS011;12087;45.190;5.688;2023-04-01T06:05:29;8.90;;;2.70;;
23812;SDS011;12087;45.190;5.688;2023-04-01T06:11:04;5.97;;;2.63;;
23812;SDS011;12087;45.190;5.688;2023-04-01T06:16:39;7.57;;;3.20;;
23812;SDS011;12087;45.190;5.688;2023-04-01T06:22:22;9.40;;;2.78;;
23812;SDS011;12087;45.190;5.688;2023-04-01T06:27:59;9.25;;;2.65;;
23812;SDS011;12087;45.190;5.688;2023-04-01T06:33:41;5.70;;;2.85;;
23812;SDS011;12087;45.190;5.688;2023-04-01T06:39:13;10.07;;;3.38;;
23812;SDS011;12087;45.190;5.688;2023-04-01T06:44:52;8.98;;;3.33;;
23812;SDS011;12087;45.190;5.688;2023-04-01T06:50:24;11.18;;;3.00;;
23812;SDS011;12087;45.190;5.688;2023-04-01T06:55:52;7.30;;;3.08;;
23812;SDS011;12087;45.190;5.688;2023-04-01T07:01:20;6.63;;;2.13;;
23812;SDS011;12087;45.190;5.688;2023-04-01T07:06:46;11.98;;;4.70;;
23812;SDS011;12087;45.190;5.688;2023-04-01T07:12:14;11.10;;;3.92;;
23812;SDS011;12087;45.190;5.688;2023-04-01T07:17:42;5.45;;;2.40;;
23812;SDS011;12087;45.190;5.688;2023-04-01T07:23:08;7.28;;;2.53;;
23812;SDS011;12087;45.190;5.688;2023-04-01T07:28:37;9.80;;;2.50;;
23812;SDS011;12087;45.190;5.688;2023-04-01T07:34:03;7.63;;;2.63;;
23812;SDS011;12087;45.190;5.688;2023-04-01T07:39:35;5.82;;;2.40;;
23812;SDS011;12087;45.190;5.688;2023-04-01T07:45:05;4.43;;;1.50;;
23812;SDS011;12087;45.190;5.688;2023-04-01T07:50:39;6.20;;;1.80;;
23812;SDS011;12087;45.190;5.688;2023-04-01T07:56:06;4.68;;;2.13;;
23812;SDS011;12087;45.190;5.688;2023-04-01T08:01:32;5.15;;;1.80;;
23812;SDS011;12087;45.190;5.688;2023-04-01T08:12:32;4.38;;;2.40;;
23812;SDS011;12087;45.190;5.688;2023-04-01T08:18:08;5.22;;;2.22;;
23812;SDS011;12087;45.190;5.688;2023-04-01T08:23:38;4.65;;;1.90;;
23812;SDS011;12087;45.190;5.688;2023-04-01T08:29:06;7.10;;;2.20;;
23812;SDS011;12087;45.190;5.688;2023-04-01T08:34:32;4.70;;;2.15;;
23812;SDS011;12087;45.190;5.688;2023-04-01T08:40:00;5.97;;;2.17;;
23812;SDS011;12087;45.190;5.688;2023-04-01T08:45:40;10.30;;;2.40;;
23812;SDS011;12087;45.190;5.688;2023-04-01T08:51:26;6.25;;;2.45;;
23812;SDS011;12087;45.190;5.688;2023-04-01T08:57:20;3.13;;;1.83;;
23812;SDS011;12087;45.190;5.688;2023-04-01T09:02:50;5.82;;;2.13;;
23812;SDS011;12087;45.190;5.688;2023-04-01T09:08:41;2.17;;;1.10;;
23812;SDS011;12087;45.190;5.688;2023-04-01T09:14:33;5.78;;;1.30;;
23812;SDS011;12087;45.190;5.688;2023-04-01T09:20:17;4.85;;;1.50;;
23812;SDS011;12087;45.190;5.688;2023-04-01T09:25:53;6.22;;;2.75;;
23812;SDS011;12087;45.190;5.688;2023-04-01T09:31:42;5.15;;;1.50;;
23812;SDS011;12087;45.190;5.688;2023-04-01T09:37:18;7.45;;;2.08;;
23812;SDS011;12087;45.190;5.688;2023-04-01T09:42:43;5.03;;;1.55;;
23812;SDS011;12087;45.190;5.688;2023-04-01T09:48:17;3.55;;;1.40;;
23812;SDS011;12087;45.190;5.688;2023-04-01T09:53:57;5.28;;;1.25;;
23812;SDS011;12087;45.190;5.688;2023-04-01T09:59:32;5.82;;;1.20;;
23812;SDS011;12087;45.190;5.688;2023-04-01T10:17:31;4.18;;;1.85;;
23812;SDS011;12087;45.190;5.688;2023-04-01T10:35:27;4.53;;;1.43;;
23812;SDS011;12087;45.190;5.688;2023-04-01T10:41:10;3.92;;;1.00;;
23812;SDS011;12087;45.190;5.688;2023-04-01T11:17:16;1.38;;;0.55;;
23812;SDS011;12087;45.190;5.688;2023-04-01T11:29:09;0.50;;;0.40;;
23812;SDS011;12087;45.190;5.688;2023-04-01T11:35:07;3.47;;;0.70;;
23812;SDS011;12087;45.190;5.688;2023-04-01T11:40:45;1.52;;;0.88;;
23812;SDS011;12087;45.190;5.688;2023-04-01T11:46:15;1.10;;;0.50;;
23812;SDS011;12087;45.190;5.688;2023-04-01T11:52:02;0.88;;;0.40;;
23812;SDS011;12087;45.190;5.688;2023-04-01T11:57:48;4.43;;;1.15;;
23812;SDS011;12087;45.190;5.688;2023-04-01T12:03:28;5.72;;;0.82;;
23812;SDS011;12087;45.190;5.688;2023-04-01T12:09:11;2.30;;;0.55;;
23812;SDS011;12087;45.190;5.688;2023-04-01T12:14:39;1.75;;;0.60;;
23812;SDS011;12087;45.190;5.688;2023-04-01T12:20:20;1.65;;;0.47;;
23812;SDS011;12087;45.190;5.688;2023-04-01T12:31:52;2.05;;;0.60;;
23812;SDS011;12087;45.190;5.688;2023-04-01T12:37:21;0.80;;;0.50;;
23812;SDS011;12087;45.190;5.688;2023-04-01T12:48:29;1.63;;;0.80;;
23812;SDS011;12087;45.190;5.688;2023-04-01T12:54:16;1.95;;;0.52;;
23812;SDS011;12087;45.190;5.688;2023-04-01T13:00:10;0.57;;;0.50;;
23812;SDS011;12087;45.190;5.688;2023-04-01T13:05:50;1.63;;;0.73;;
23812;SDS011;12087;45.190;5.688;2023-04-01T13:11:37;1.85;;;0.88;;
23812;SDS011;12087;45.190;5.688;2023-04-01T13:17:13;1.63;;;0.50;;
23812;SDS011;12087;45.190;5.688;2023-04-01T13:22:46;2.72;;;0.73;;
23812;SDS011;12087;45.190;5.688;2023-04-01T13:28:20;3.35;;;0.82;;
23812;SDS011;12087;45.190;5.688;2023-04-01T13:33:47;2.60;;;0.60;;
23812;SDS011;12087;45.190;5.688;2023-04-01T13:39:20;1.15;;;0.40;;
23812;SDS011;12087;45.190;5.688;2023-04-01T13:45:08;1.50;;;0.50;;
23812;SDS011;12087;45.190;5.688;2023-04-01T13:56:34;0.45;;;0.38;;
23812;SDS011;12087;45.190;5.688;2023-04-01T14:02:06;2.17;;;0.40;;
23812;SDS011;12087;45.190;5.688;2023-04-01T14:07:45;0.45;;;0.28;;
23812;SDS011;12087;45.190;5.688;2023-04-01T14:13:18;2.00;;;0.70;;
23812;SDS011;12087;45.190;5.688;2023-04-01T14:18:53;1.38;;;1.10;;
23812;SDS011;12087;45.190;5.688;2023-04-01T14:30:38;1.27;;;0.70;;
23812;SDS011;12087;45.190;5.688;2023-04-01T14:36:15;1.55;;;0.80;;
23812;SDS011;12087;45.190;5.688;2023-04-01T14:41:59;0.85;;;0.63;;
23812;SDS011;12087;45.190;5.688;2023-04-01T14:47:44;1.25;;;0.60;;
23812;SDS011;12087;45.190;5.688;2023-04-01T14:53:12;1.55;;;0.60;;
23812;SDS011;12087;45.190;5.688;2023-04-01T14:58:49;0.70;;;0.47;;
23812;SDS011;12087;45.190;5.688;2023-04-01T15:04:23;2.38;;;0.93;;
23812;SDS011;12087;45.190;5.688;2023-04-01T15:10:06;1.60;;;0.70;;
23812;SDS011;12087;45.190;5.688;2023-04-01T15:15:44;3.65;;;0.88;;
23812;SDS011;12087;45.190;5.688;2023-04-01T15:21:38;1.33;;;0.50;;
23812;SDS011;12087;45.190;5.688;2023-04-01T15:27:15;0.93;;;0.70;;
23812;SDS011;12087;45.190;5.688;2023-04-01T15:32:51;2.38;;;0.73;;
23812;SDS011;12087;45.190;5.688;2023-04-01T15:38:33;1.42;;;0.77;;
23812;SDS011;12087;45.190;5.688;2023-04-01T15:44:01;2.72;;;1.20;;
23812;SDS011;12087;45.190;5.688;2023-04-01T15:49:30;1.67;;;1.00;;
23812;SDS011;12087;45.190;5.688;2023-04-01T15:55:16;1.02;;;0.77;;
23812;SDS011;12087;45.190;5.688;2023-04-01T16:00:47;1.30;;;1.20;;
23812;SDS011;12087;45.190;5.688;2023-04-01T16:06:21;2.63;;;1.20;;
23812;SDS011;12087;45.190;5.688;2023-04-01T16:12:00;2.00;;;1.15;;
23812;SDS011;12087;45.190;5.688;2023-04-01T16:29:00;1.10;;;0.80;;
23812;SDS011;12087;45.190;5.688;2023-04-01T16:34:31;1.92;;;0.82;;
23812;SDS011;12087;45.190;5.688;2023-04-01T16:40:04;2.38;;;1.05;;
23812;SDS011;12087;45.190;5.688;2023-04-01T16:45:38;0.50;;;0.50;;
23812;SDS011;12087;45.190;5.688;2023-04-01T16:51:04;1.10;;;0.70;;
23812;SDS011;12087;45.190;5.688;2023-04-01T17:02:04;1.65;;;0.90;;
23812;SDS011;12087;45.190;5.688;2023-04-01T17:07:36;3.00;;;0.60;;
23812;SDS011;12087;45.190;5.688;2023-04-01T17:19:06;3.45;;;1.25;;
23812;SDS011;12087;45.190;5.688;2023-04-01T17:24:40;6.80;;;2.83;;
23812;SDS011;12087;45.190;5.688;2023-04-01T17:30:15;5.95;;;2.88;;
23812;SDS011;12087;45.190;5.688;2023-04-01T17:35:47;4.63;;;1.10;;
23812;SDS011;12087;45.190;5.688;2023-04-01T17:41:17;3.03;;;1.20;;
23812;SDS011;12087;45.190;5.688;2023-04-01T17:52:42;1.80;;;1.13;;
23812;SDS011;12087;45.190;5.688;2023-04-01T17:58:08;3.15;;;1.10;;
23812;SDS011;12087;45.190;5.688;2023-04-01T18:03:51;0.93;;;0.88;;
23812;SDS011;12087;45.190;5.688;2023-04-01T18:09:23;2.75;;;1.63;;
23812;SDS011;12087;45.190;5.688;2023-04-01T18:14:54;1.85;;;1.45;;
23812;SDS011;12087;45.190;5.688;2023-04-01T18:20:36;5.22;;;1.88;;
23812;SDS011;12087;45.190;5.688;2023-04-01T18:26:07;4.47;;;2.00;;
23812;SDS011;12087;45.190;5.688;2023-04-01T18:31:34;5.03;;;2.55;;
23812;SDS011;12087;45.190;5.688;2023-04-01T18:37:02;3.70;;;1.90;;
23812;SDS011;12087;45.190;5.688;2023-04-01T18:42:41;5.15;;;1.80;;
23812;SDS011;12087;45.190;5.688;2023-04-01T18:48:12;3.03;;;1.80;;
23812;SDS011;12087;45.190;5.688;2023-04-01T18:53:41;2.90;;;1.60;;
23812;SDS011;12087;45.190;5.688;2023-04-01T18:59:10;1.90;;;1.60;;
23812;SDS011;12087;45.190;5.688;2023-04-01T19:04:38;2.35;;;1.30;;
23812;SDS011;12087;45.190;5.688;2023-04-01T19:10:13;2.95;;;1.63;;
23812;SDS011;12087;45.190;5.688;2023-04-01T19:15:39;3.70;;;1.63;;
23812;SDS011;12087;45.190;5.688;2023-04-01T19:21:07;2.53;;;1.55;;
23812;SDS011;12087;45.190;5.688;2023-04-01T19:26:37;3.30;;;1.60;;
23812;SDS011;12087;45.190;5.688;2023-04-01T19:32:05;2.42;;;1.50;;
23812;SDS011;12087;45.190;5.688;2023-04-01T19:37:37;3.25;;;1.73;;
23812;SDS011;12087;45.190;5.688;2023-04-01T19:43:05;3.08;;;1.63;;
23812;SDS011;12087;45.190;5.688;2023-04-01T19:48:37;3.00;;;1.80;;
23812;SDS011;12087;45.190;5.688;2023-04-01T19:54:13;10.30;;;2.40;;
23812;SDS011;12087;45.190;5.688;2023-04-01T19:59:45;5.43;;;1.63;;
23812;SDS011;12087;45.190;5.688;2023-04-01T20:05:24;5.43;;;1.75;;
23812;SDS011;12087;45.190;5.688;2023-04-01T20:11:18;6.63;;;1.80;;
23812;SDS011;12087;45.190;5.688;2023-04-01T20:16:53;6.13;;;1.80;;
23812;SDS011;12087;45.190;5.688;2023-04-01T20:22:24;3.20;;;2.08;;
23812;SDS011;12087;45.190;5.688;2023-04-01T20:27:57;4.68;;;3.08;;
23812;SDS011;12087;45.190;5.688;2023-04-01T20:33:34;7.78;;;2.08;;
23812;SDS011;12087;45.190;5.688;2023-04-01T20:39:15;3.67;;;1.80;;
23812;SDS011;12087;45.190;5.688;2023-04-01T20:45:08;2.38;;;1.90;;
23812;SDS011;12087;45.190;5.688;2023-04-01T20:50:42;3.72;;;2.03;;
23812;SDS011;12087;45.190;5.688;2023-04-01T20:56:17;3.35;;;1.83;;
23812;SDS011;12087;45.190;5.688;2023-04-01T21:01:56;5.72;;;2.38;;
23812;SDS011;12087;45.190;5.688;2023-04-01T21:07:28;4.68;;;1.90;;
23812;SDS011;12087;45.190;5.688;2023-04-01T21:13:01;3.15;;;1.88;;
23812;SDS011;12087;45.190;5.688;2023-04-01T21:18:39;2.90;;;1.42;;
23812;SDS011;12087;45.190;5.688;2023-04-01T21:30:24;0.95;;;0.70;;
23812;SDS011;12087;45.190;5.688;2023-04-01T21:36:11;1.80;;;0.90;;
23812;SDS011;12087;45.190;5.688;2023-04-01T21:42:03;3.65;;;1.45;;
23812;SDS011;12087;45.190;5.688;2023-04-01T21:47:51;2.80;;;1.40;;
23812;SDS011;12087;45.190;5.688;2023-04-01T22:05:35;4.70;;;2.10;;
23812;SDS011;12087;45.190;5.688;2023-04-01T22:11:04;7.63;;;2.03;;
23812;SDS011;12087;45.190;5.688;2023-04-01T22:16:34;4.13;;;2.22;;
23812;SDS011;12087;45.190;5.688;2023-04-01T22:22:04;5.15;;;2.35;;
23812;SDS011;12087;45.190;5.688;2023-04-01T22:27:35;5.50;;;2.13;;
23812;SDS011;12087;45.190;5.688;2023-04-01T22:33:04;6.07;;;1.73;;
23812;SDS011;12087;45.190;5.688;2023-04-01T22:38:35;2.70;;;1.77;;
23812;SDS011;12087;45.190;5.688;2023-04-01T22:44:18;1.85;;;1.67;;
23812;SDS011;12087;45.190;5.688;2023-04-01T22:49:51;10.45;;;2.50;;
23812;SDS011;12087;45.190;5.688;2023-04-01T22:55:21;3.13;;;1.90;;
23812;SDS011;12087;45.190;5.688;2023-04-01T23:00:48;3.55;;;2.08;;
23812;SDS011;12087;45.190;5.688;2023-04-01T23:06:15;4.25;;;1.90;;
23812;SDS011;12087;45.190;5.688;2023-04-01T23:11:45;2.20;;;1.38;;
23812;SDS011;12087;45.190;5.688;2023-04-01T23:17:21;2.58;;;1.40;;
23812;SDS011;12087;45.190;5.688;2023-04-01T23:23:13;1.80;;;1.50;;
23812;SDS011;12087;45.190;5.688;2023-04-01T23:28:47;3.83;;;1.55;;
23812;SDS011;12087;45.190;5.688;2023-04-01T23:34:22;3.83;;;1.85;;
23812;SDS011;12087;45.190;5.688;2023-04-01T23:39:50;1.58;;;1.48;;
23812;SDS011;12087;45.190;5.688;2023-04-01T23:45:16;3.17;;;1.85;;
23812;SDS011;12087;45.190;5.688;2023-04-01T23:50:40;1.90;;;1.48;;
23812;SDS011;12087;45.190;5.688;2023-04-01T23:56:03;5.32;;;1.58;;
